createdAt,value
2017-04-20T00:00:06.083Z,84.61
2017-04-20T00:02:19.789Z,84.9
2017-04-20T00:03:00.664Z,84.9
2017-04-20T00:03:41.533Z,85.19
2017-04-20T00:04:22.412Z,85.66
2017-04-20T00:05:03.298Z,85.09
2017-04-20T00:05:44.173Z,85.28
2017-04-20T00:06:25.064Z,84.9
2017-04-20T00:07:05.929Z,84.71
2017-04-20T00:07:46.804Z,84.52
2017-04-20T00:08:27.674Z,84.81
2017-04-20T00:09:08.560Z,85.47
2017-04-20T00:09:49.432Z,85
2017-04-20T00:10:30.311Z,85.66
2017-04-20T00:11:11.179Z,86.04
2017-04-20T00:11:52.050Z,86.04
2017-04-20T00:12:32.928Z,86.41
2017-04-20T00:13:13.811Z,87.08
2017-04-20T00:13:54.688Z,87.17
2017-04-20T00:14:35.560Z,87.36
2017-04-20T00:15:16.435Z,87.36
2017-04-20T00:15:57.308Z,86.89
2017-04-20T00:16:38.170Z,86.6
2017-04-20T00:17:19.045Z,86.51
2017-04-20T00:17:59.915Z,87.27
2017-04-20T00:18:40.790Z,87.17
2017-04-20T00:19:21.658Z,86.7
2017-04-20T00:20:02.528Z,87.36
2017-04-20T00:20:43.415Z,86.51
2017-04-20T00:21:24.280Z,86.32
2017-04-20T00:22:05.150Z,87.08
2017-04-20T00:22:46.033Z,87.08
2017-04-20T00:23:26.917Z,86.98
2017-04-20T00:24:07.791Z,87.17
2017-04-20T00:24:48.662Z,87.74
2017-04-20T00:25:29.536Z,86.89
2017-04-20T00:26:10.414Z,87.36
2017-04-20T00:26:51.292Z,88.02
2017-04-20T00:27:32.175Z,87.36
2017-04-20T00:28:13.043Z,87.93
2017-04-20T00:28:53.907Z,88.02
2017-04-20T00:29:34.781Z,88.59
2017-04-20T00:30:15.644Z,88.31
2017-04-20T00:30:56.531Z,88.49
2017-04-20T00:31:37.419Z,88.12
2017-04-20T00:32:18.282Z,87.74
2017-04-20T00:32:59.158Z,88.12
2017-04-20T00:33:40.027Z,88.02
2017-04-20T00:34:20.892Z,88.02
2017-04-20T00:35:01.769Z,87.08
2017-04-20T00:35:42.691Z,87.46
2017-04-20T00:36:23.568Z,87.36
2017-04-20T00:37:04.446Z,87.08
2017-04-20T00:37:45.309Z,87.17
2017-04-20T00:38:26.180Z,87.17
2017-04-20T00:39:07.046Z,87.08
2017-04-20T00:39:47.929Z,88.02
2017-04-20T00:40:28.794Z,87.55
2017-04-20T00:41:09.675Z,87.93
2017-04-20T00:41:50.552Z,87.74
2017-04-20T00:42:31.417Z,87.08
2017-04-20T00:43:12.296Z,87.46
2017-04-20T00:43:53.160Z,86.89
2017-04-20T00:44:34.023Z,87.27
2017-04-20T00:45:14.895Z,87.74
2017-04-20T00:45:55.772Z,87.27
2017-04-20T00:46:36.643Z,86.89
2017-04-20T00:47:17.521Z,87.08
2017-04-20T00:47:58.386Z,87.08
2017-04-20T00:48:39.267Z,87.17
2017-04-20T00:49:20.152Z,87.17
2017-04-20T00:50:01.029Z,87.08
2017-04-20T00:50:41.924Z,87.08
2017-04-20T00:51:22.804Z,87.17
2017-04-20T00:53:21.554Z,87.36
2017-04-20T00:54:02.474Z,87.27
2017-04-20T00:54:43.511Z,87.65
2017-04-20T00:55:24.427Z,88.59
2017-04-20T00:56:05.304Z,88.59
2017-04-20T00:56:46.227Z,88.49
2017-04-20T00:57:27.093Z,88.12
2017-04-20T00:58:07.966Z,88.49
2017-04-20T00:58:48.862Z,88.21
2017-04-20T00:59:29.736Z,88.4
2017-04-20T01:00:10.609Z,88.21
2017-04-20T01:00:51.488Z,88.4
2017-04-20T01:01:32.363Z,88.12
2017-04-20T01:02:13.239Z,88.4
2017-04-20T01:02:54.111Z,88.97
2017-04-20T01:03:34.984Z,89.16
2017-04-20T01:04:15.911Z,89.16
2017-04-20T01:04:56.782Z,89.16
2017-04-20T01:05:37.657Z,89.16
2017-04-20T01:06:18.527Z,89.06
2017-04-20T01:06:59.407Z,88.78
2017-04-20T01:07:40.307Z,89.16
2017-04-20T01:08:21.161Z,89.63
2017-04-20T01:09:02.035Z,89.54
2017-04-20T01:09:42.906Z,89.35
2017-04-20T01:10:23.780Z,89.63
2017-04-20T01:11:04.666Z,89.44
2017-04-20T01:11:45.545Z,89.82
2017-04-20T01:12:26.421Z,89.44
2017-04-20T01:13:07.296Z,89.63
2017-04-20T01:13:48.187Z,90.3
2017-04-20T01:14:29.058Z,90.2
2017-04-20T01:15:09.930Z,90.2
2017-04-20T01:15:50.803Z,90.25
2017-04-20T01:16:31.677Z,89.82
2017-04-20T01:17:12.596Z,90.25
2017-04-20T01:17:53.415Z,90.58
2017-04-20T01:18:34.276Z,90.34
2017-04-20T01:19:15.147Z,91.01
2017-04-20T01:19:56.015Z,90.72
2017-04-20T01:20:36.898Z,90.82
2017-04-20T01:21:17.798Z,90.82
2017-04-20T01:21:58.666Z,91.01
2017-04-20T01:22:39.567Z,90.63
2017-04-20T01:23:20.434Z,90.82
2017-04-20T01:24:01.319Z,90.82
2017-04-20T01:24:42.193Z,91.01
2017-04-20T01:25:23.133Z,91.2
2017-04-20T01:26:03.987Z,91.2
2017-04-20T01:26:44.866Z,91.1
2017-04-20T01:27:25.727Z,91.01
2017-04-20T01:28:06.583Z,91.29
2017-04-20T01:28:47.462Z,91.2
2017-04-20T01:29:28.348Z,91.01
2017-04-20T01:30:09.256Z,92.24
2017-04-20T01:30:50.123Z,91.29
2017-04-20T01:31:30.997Z,91.67
2017-04-20T01:32:11.875Z,91.2
2017-04-20T01:32:52.751Z,91.2
2017-04-20T01:33:33.629Z,91.1
2017-04-20T01:34:14.508Z,91.48
2017-04-20T01:34:55.393Z,91.2
2017-04-20T01:35:36.271Z,91.2
2017-04-20T01:36:17.146Z,91.48
2017-04-20T01:36:58.021Z,92.33
2017-04-20T01:37:38.897Z,91.96
2017-04-20T01:38:19.771Z,91.77
2017-04-20T01:39:00.654Z,91.86
2017-04-20T01:39:41.534Z,92.05
2017-04-20T01:40:22.411Z,91.58
2017-04-20T01:41:03.283Z,91.39
2017-04-20T01:41:44.156Z,91.77
2017-04-20T01:42:25.035Z,92.05
2017-04-20T01:43:05.902Z,91.77
2017-04-20T01:43:46.775Z,91.48
2017-04-20T01:44:27.650Z,92.33
2017-04-20T01:45:08.522Z,91.2
2017-04-20T01:45:49.397Z,91.1
2017-04-20T01:46:30.274Z,91.67
2017-04-20T01:47:11.158Z,92.05
2017-04-20T01:47:52.037Z,91.39
2017-04-20T01:48:32.913Z,91.39
2017-04-20T01:49:13.782Z,91.01
2017-04-20T01:49:54.651Z,91.1
2017-04-20T01:50:35.606Z,90.53
2017-04-20T01:51:16.456Z,90.63
2017-04-20T01:51:57.321Z,90.53
2017-04-20T01:52:38.203Z,91.1
2017-04-20T01:53:19.078Z,91.1
2017-04-20T01:53:59.945Z,91.2
2017-04-20T01:54:40.858Z,92.14
2017-04-20T01:55:21.713Z,91.96
2017-04-20T01:56:02.586Z,92.24
2017-04-20T01:56:43.464Z,92.61
2017-04-20T01:57:24.340Z,92.14
2017-04-20T01:58:05.199Z,92.33
2017-04-20T01:58:46.075Z,92.52
2017-04-20T01:59:26.956Z,92.33
2017-04-20T02:00:07.817Z,92.33
2017-04-20T02:00:48.691Z,92.43
2017-04-20T02:01:29.554Z,92.52
2017-04-20T02:02:10.404Z,92.33
2017-04-20T02:02:51.291Z,92.24
2017-04-20T02:03:32.156Z,93.18
2017-04-20T02:04:13.032Z,92.9
2017-04-20T02:04:53.896Z,92.71
2017-04-20T02:05:34.760Z,92.9
2017-04-20T02:06:15.655Z,92.8
2017-04-20T02:06:57.123Z,92.99
2017-04-20T02:07:37.998Z,92.99
2017-04-20T02:08:18.871Z,92.99
2017-04-20T02:08:59.754Z,92.99
2017-04-20T02:09:40.633Z,93.47
2017-04-20T02:10:21.500Z,93.37
2017-04-20T02:11:02.372Z,93.66
2017-04-20T02:11:43.247Z,93.66
2017-04-20T02:12:24.105Z,93.66
2017-04-20T02:13:04.996Z,93.47
2017-04-20T02:13:45.866Z,93.94
2017-04-20T02:14:26.734Z,94.04
2017-04-20T02:15:07.606Z,93.47
2017-04-20T02:15:48.479Z,93.56
2017-04-20T02:16:29.345Z,93.66
2017-04-20T02:17:10.203Z,93.66
2017-04-20T02:17:51.082Z,93.66
2017-04-20T02:18:31.955Z,93.56
2017-04-20T02:19:13.413Z,93.56
2017-04-20T02:19:54.294Z,93.47
2017-04-20T02:20:35.175Z,93.18
2017-04-20T02:21:16.047Z,93.18
2017-04-20T02:21:56.952Z,93.18
2017-04-20T02:22:37.818Z,92.99
2017-04-20T02:23:18.690Z,93.66
2017-04-20T02:23:59.558Z,93.37
2017-04-20T02:24:40.434Z,93.75
2017-04-20T02:25:21.306Z,93.37
2017-04-20T02:26:02.193Z,93.75
2017-04-20T02:26:43.063Z,93.56
2017-04-20T02:27:23.938Z,93.56
2017-04-20T02:28:04.802Z,93.28
2017-04-20T02:28:45.962Z,94.13
2017-04-20T02:29:26.836Z,94.04
2017-04-20T02:30:07.713Z,93.75
2017-04-20T02:30:48.592Z,94.42
2017-04-20T02:31:29.468Z,93.94
2017-04-20T02:32:10.344Z,93.85
2017-04-20T02:32:51.202Z,93.66
2017-04-20T02:33:32.078Z,94.13
2017-04-20T02:34:12.944Z,94.42
2017-04-20T02:34:53.812Z,93.66
2017-04-20T02:35:36.263Z,93.37
2017-04-20T02:36:18.906Z,93.56
2017-04-20T02:36:59.783Z,93.28
2017-04-20T02:37:40.657Z,93.09
2017-04-20T02:38:21.527Z,93.18
2017-04-20T02:39:02.410Z,92.71
2017-04-20T02:39:43.293Z,92.71
2017-04-20T02:40:24.180Z,92.71
2017-04-20T02:41:05.061Z,92.71
2017-04-20T02:41:45.943Z,93.09
2017-04-20T02:42:26.821Z,93.09
2017-04-20T02:43:07.691Z,93.18
2017-04-20T02:43:48.568Z,93.09
2017-04-20T02:44:29.448Z,92.71
2017-04-20T02:45:10.333Z,92.24
2017-04-20T02:45:51.204Z,91.86
2017-04-20T02:46:32.082Z,91.86
2017-04-20T02:47:12.968Z,91.58
2017-04-20T02:47:53.842Z,91.96
2017-04-20T02:48:34.737Z,91.2
2017-04-20T02:49:15.617Z,91.01
2017-04-20T02:49:56.496Z,91.39
2017-04-20T02:50:37.373Z,90.91
2017-04-20T02:51:19.905Z,91.2
2017-04-20T02:52:00.777Z,91.48
2017-04-20T02:52:41.647Z,91.67
2017-04-20T02:53:22.517Z,92.24
2017-04-20T02:54:03.400Z,92.05
2017-04-20T02:54:44.275Z,91.86
2017-04-20T02:55:25.153Z,92.61
2017-04-20T02:56:06.032Z,91.86
2017-04-20T02:56:46.907Z,92.33
2017-04-20T02:57:27.779Z,92.43
2017-04-20T02:58:08.651Z,92.52
2017-04-20T02:58:49.543Z,92.61
2017-04-20T02:59:30.421Z,92.33
2017-04-20T03:00:11.298Z,92.8
2017-04-20T03:00:52.183Z,92.9
2017-04-20T03:02:50.920Z,92.61
2017-04-20T03:03:31.794Z,92.99
2017-04-20T03:04:12.675Z,92.52
2017-04-20T03:04:53.548Z,92.43
2017-04-20T03:05:34.405Z,92.43
2017-04-20T03:06:15.269Z,92.52
2017-04-20T03:06:56.130Z,91.77
2017-04-20T03:07:36.982Z,92.14
2017-04-20T03:08:17.850Z,92.05
2017-04-20T03:08:58.693Z,92.52
2017-04-20T03:09:39.544Z,92.14
2017-04-20T03:10:20.387Z,92.33
2017-04-20T03:11:01.241Z,92.61
2017-04-20T03:11:42.106Z,93.18
2017-04-20T03:12:22.947Z,92.99
2017-04-20T03:13:03.795Z,92.99
2017-04-20T03:13:44.666Z,92.8
2017-04-20T03:14:25.523Z,93.09
2017-04-20T03:15:06.389Z,92.99
2017-04-20T03:15:47.263Z,92.8
2017-04-20T03:16:28.131Z,92.9
2017-04-20T03:17:08.995Z,92.9
2017-04-20T03:17:49.863Z,92.33
2017-04-20T03:18:30.725Z,92.61
2017-04-20T03:19:11.595Z,92.33
2017-04-20T03:19:52.481Z,92.61
2017-04-20T03:20:33.355Z,92.71
2017-04-20T03:21:14.227Z,92.61
2017-04-20T03:21:55.100Z,92.9
2017-04-20T03:22:35.968Z,93.18
2017-04-20T03:23:16.850Z,92.71
2017-04-20T03:23:57.744Z,92.71
2017-04-20T03:24:38.613Z,92.71
2017-04-20T03:25:19.483Z,93.37
2017-04-20T03:26:00.346Z,93.37
2017-04-20T03:26:41.234Z,93.37
2017-04-20T03:27:22.151Z,93.56
2017-04-20T03:29:21.223Z,93.37
2017-04-20T03:30:02.114Z,93.56
2017-04-20T03:32:17.398Z,93.66
2017-04-20T03:32:58.280Z,93.56
2017-04-20T03:33:39.154Z,93.61
2017-04-20T03:34:20.017Z,93.85
2017-04-20T03:35:00.891Z,94.23
2017-04-20T03:35:41.750Z,94.23
2017-04-20T03:36:22.601Z,94.13
2017-04-20T03:37:03.466Z,93.66
2017-04-20T03:37:44.323Z,93.66
2017-04-20T03:38:25.182Z,93.94
2017-04-20T03:39:06.040Z,94.18
2017-04-20T03:39:46.913Z,94.42
2017-04-20T03:40:27.795Z,94.6
2017-04-20T03:41:08.750Z,94.6
2017-04-20T03:43:26.474Z,93.94
2017-04-20T03:44:07.347Z,93.66
2017-04-20T03:46:21.623Z,93.37
2017-04-20T03:47:02.889Z,93.28
2017-04-20T03:49:19.796Z,93.18
2017-04-20T03:57:24.456Z,92.71
2017-04-20T03:58:05.341Z,92.61
2017-04-20T03:58:46.218Z,92.9
2017-04-20T03:59:29.018Z,92.9
2017-04-20T04:00:09.889Z,93.18
2017-04-20T04:00:50.763Z,93.18
2017-04-20T04:01:31.632Z,92.8
2017-04-20T04:02:12.508Z,93.18
2017-04-20T04:02:53.385Z,92.8
2017-04-20T04:03:34.261Z,92.71
2017-04-20T04:04:15.133Z,92.8
2017-04-20T04:04:55.995Z,93.09
2017-04-20T04:05:36.855Z,93.18
2017-04-20T04:06:17.718Z,93.09
2017-04-20T04:06:58.585Z,92.9
2017-04-20T04:07:39.445Z,92.9
2017-04-20T04:08:20.331Z,93.18
2017-04-20T04:09:01.206Z,92.99
2017-04-20T04:09:42.080Z,93.18
2017-04-20T04:10:22.938Z,92.52
2017-04-20T04:11:03.807Z,93.28
2017-04-20T04:11:44.685Z,92.99
2017-04-20T04:12:25.539Z,93.09
2017-04-20T04:13:06.410Z,92.8
2017-04-20T04:13:47.299Z,93.37
2017-04-20T04:14:28.179Z,93.47
2017-04-20T04:15:09.057Z,93.09
2017-04-20T04:18:25.952Z,93.56
2017-04-20T04:20:14.195Z,92.8
2017-04-20T04:20:55.079Z,92.8
2017-04-20T04:21:35.942Z,92.71
2017-04-20T04:22:16.811Z,92.8
2017-04-20T04:22:57.668Z,92.43
2017-04-20T04:23:38.533Z,93.09
2017-04-20T04:24:19.410Z,92.14
2017-04-20T04:25:00.268Z,92.71
2017-04-20T04:25:41.177Z,92.33
2017-04-20T04:26:22.044Z,92.61
2017-04-20T04:27:05.865Z,92.52
2017-04-20T04:27:46.733Z,91.96
2017-04-20T04:28:27.604Z,92.43
2017-04-20T04:29:08.466Z,92.14
2017-04-20T04:29:49.344Z,92.33
2017-04-20T04:30:30.235Z,92.43
2017-04-20T04:31:11.105Z,92.71
2017-04-20T04:31:51.981Z,92.33
2017-04-20T04:32:32.831Z,92.43
2017-04-20T04:33:13.686Z,92.52
2017-04-20T04:33:54.551Z,92.52
2017-04-20T04:34:35.412Z,91.58
2017-04-20T04:35:16.276Z,91.58
2017-04-20T04:35:57.146Z,91.86
2017-04-20T04:38:32.685Z,92.05
2017-04-20T04:39:13.576Z,92.24
2017-04-20T04:39:54.476Z,91.58
2017-04-20T04:40:35.346Z,92.05
2017-04-20T04:41:16.937Z,92.05
2017-04-20T04:41:57.795Z,91.86
2017-04-20T04:42:38.651Z,91.86
2017-04-20T04:43:19.524Z,91.86
2017-04-20T04:44:00.403Z,91.86
2017-04-20T04:44:41.282Z,92.05
2017-04-20T04:45:22.153Z,92.05
2017-04-20T04:46:03.024Z,92.05
2017-04-20T04:49:58.565Z,92.14
2017-04-20T04:50:39.450Z,92.05
2017-04-20T04:51:20.373Z,91.77
2017-04-20T04:52:01.220Z,92.8
2017-04-20T04:52:42.097Z,92.14
2017-04-20T04:53:22.961Z,91.86
2017-04-20T04:59:32.839Z,92.14
2017-04-20T05:00:17.638Z,91.2
2017-04-20T05:00:58.518Z,91.58
2017-04-20T05:01:39.375Z,91.2
2017-04-20T05:02:20.262Z,91.01
2017-04-20T05:03:01.193Z,91.1
2017-04-20T05:03:42.039Z,91.2
2017-04-20T05:04:22.916Z,91.01
2017-04-20T05:05:03.765Z,90.91
2017-04-20T05:05:44.683Z,90.82
2017-04-20T05:06:25.589Z,90.72
2017-04-20T05:08:29.985Z,90.63
2017-04-20T05:09:10.851Z,90.91
2017-04-20T05:09:51.726Z,90.63
2017-04-20T05:10:32.611Z,90.53
2017-04-20T05:11:13.443Z,90.16
2017-04-20T05:11:54.319Z,90.82
2017-04-20T05:12:35.224Z,90.16
2017-04-20T05:13:16.100Z,90.06
2017-04-20T05:13:56.965Z,90.16
2017-04-20T05:14:37.832Z,89.97
2017-04-20T05:15:18.692Z,90.16
2017-04-20T05:15:59.549Z,89.87
2017-04-20T05:16:40.410Z,90.34
2017-04-20T05:17:21.262Z,90.16
2017-04-20T05:18:02.124Z,89.97
2017-04-20T05:18:42.984Z,89.97
2017-04-20T05:19:25.358Z,89.5
2017-04-20T05:20:06.218Z,89.59
2017-04-20T05:20:47.083Z,89.69
2017-04-20T05:21:27.951Z,89.5
2017-04-20T05:22:08.815Z,89.69
2017-04-20T05:22:49.682Z,89.5
2017-04-20T05:23:30.558Z,89.02
2017-04-20T05:24:11.438Z,88.93
2017-04-20T05:24:52.318Z,89.02
2017-04-20T05:25:33.183Z,89.12
2017-04-20T05:26:14.047Z,89.21
2017-04-20T05:26:54.950Z,88.83
2017-04-20T05:27:35.853Z,88.64
2017-04-20T05:28:16.717Z,88.26
2017-04-20T05:28:57.593Z,88.55
2017-04-20T05:29:38.454Z,87.88
2017-04-20T05:30:19.339Z,87.88
2017-04-20T05:31:00.224Z,87.98
2017-04-20T05:31:41.097Z,87.88
2017-04-20T05:32:21.958Z,87.88
2017-04-20T05:33:02.823Z,87.88
2017-04-20T05:33:43.689Z,87.23
2017-04-20T05:34:24.549Z,87.32
2017-04-20T05:35:05.399Z,87.79
2017-04-20T05:35:46.262Z,87.41
2017-04-20T05:36:27.120Z,87.51
2017-04-20T05:37:08.021Z,87.88
2017-04-20T05:37:48.906Z,88.26
2017-04-20T05:38:29.789Z,87.79
2017-04-20T05:39:10.654Z,88.17
2017-04-20T05:39:51.526Z,87.88
2017-04-20T05:40:32.419Z,87.98
2017-04-20T05:41:13.296Z,87.7
2017-04-20T05:41:54.194Z,87.79
2017-04-20T05:42:35.072Z,87.98
2017-04-20T05:43:15.997Z,88.36
2017-04-20T05:43:56.870Z,88.26
2017-04-20T05:44:37.760Z,88.45
2017-04-20T05:45:18.647Z,88.36
2017-04-20T05:45:59.524Z,87.79
2017-04-20T05:46:40.391Z,87.88
2017-04-20T05:47:21.261Z,87.23
2017-04-20T05:48:02.140Z,87.7
2017-04-20T05:48:43.044Z,87.04
2017-04-20T05:49:23.928Z,87.08
2017-04-20T05:50:04.809Z,87.17
2017-04-20T05:50:45.673Z,87.41
2017-04-20T05:51:28.484Z,87.79
2017-04-20T05:52:11.142Z,88.07
2017-04-20T05:52:52.009Z,88.07
2017-04-20T05:53:33.887Z,87.41
2017-04-20T05:54:14.758Z,87.41
2017-04-20T05:54:57.391Z,86.94
2017-04-20T05:55:40.144Z,87.55
2017-04-20T05:56:21.000Z,86.7
2017-04-20T05:57:01.870Z,86.89
2017-04-20T05:57:42.720Z,87.08
2017-04-20T05:58:23.572Z,87.08
2017-04-20T05:59:04.473Z,87.27
2017-04-20T06:01:21.027Z,87.08
2017-04-20T06:02:01.918Z,86.79
2017-04-20T06:02:44.588Z,86.41
2017-04-20T06:03:25.490Z,85.85
2017-04-20T06:05:16.005Z,85.66
2017-04-20T06:05:58.545Z,85.38
2017-04-20T06:06:39.412Z,85.38
2017-04-20T06:07:20.289Z,85.94
2017-04-20T06:08:01.160Z,85.85
2017-04-20T06:08:42.093Z,85.38
2017-04-20T06:09:22.906Z,84.71
2017-04-20T06:10:03.778Z,84.81
2017-04-20T06:10:44.643Z,84.61
2017-04-20T06:12:51.309Z,83.67
2017-04-20T06:13:32.234Z,83.95
2017-04-20T06:14:13.123Z,84.14
2017-04-20T06:14:54.004Z,83.86
2017-04-20T06:15:34.877Z,83.76
2017-04-20T06:16:15.756Z,83.48
2017-04-20T06:16:56.633Z,82.82
2017-04-20T06:17:37.513Z,82.91
2017-04-20T06:18:18.497Z,82.44
2017-04-20T06:18:59.369Z,82.29
2017-04-20T06:19:40.240Z,82.34
2017-04-20T06:20:21.120Z,82.39
2017-04-20T06:21:02.002Z,82.1
2017-04-20T06:21:42.872Z,82.01
2017-04-20T06:22:23.740Z,82.1
2017-04-20T06:24:11.947Z,82.76
2017-04-20T06:24:52.830Z,81.82
2017-04-20T06:25:33.702Z,81.34
2017-04-20T06:26:14.569Z,81.72
2017-04-20T06:26:55.445Z,81.82
2017-04-20T06:27:36.330Z,81.34
2017-04-20T06:28:17.209Z,80.96
2017-04-20T06:28:58.086Z,80.49
2017-04-20T06:29:39.008Z,80.96
2017-04-20T06:30:19.924Z,80.77
2017-04-20T06:31:00.793Z,81.06
2017-04-20T06:31:41.731Z,80.49
2017-04-20T06:32:22.633Z,80.68
2017-04-20T06:33:03.494Z,80.58
2017-04-20T06:33:44.360Z,80.4
2017-04-20T06:34:25.240Z,80.02
2017-04-20T06:35:06.100Z,79.93
2017-04-20T06:38:29.688Z,78.59
2017-04-20T06:39:10.559Z,78.22
2017-04-20T06:39:51.428Z,78.03
2017-04-20T06:40:32.301Z,77.65
2017-04-20T06:41:13.194Z,77.75
2017-04-20T06:41:54.052Z,77.46
2017-04-20T06:42:34.918Z,76.51
2017-04-20T06:43:15.830Z,76.89
2017-04-20T06:43:56.707Z,76.51
2017-04-20T06:44:37.590Z,76.32
2017-04-20T06:45:18.459Z,76.04
2017-04-20T06:45:59.312Z,75.76
2017-04-20T06:46:40.176Z,76.23
2017-04-20T06:47:21.050Z,76.23
2017-04-20T06:48:01.927Z,75.95
2017-04-20T06:48:42.835Z,75.57
2017-04-20T06:49:23.702Z,75.47
2017-04-20T06:50:04.568Z,75.7
2017-04-20T06:50:45.433Z,75.7
2017-04-20T06:51:26.302Z,75.98
2017-04-20T06:52:07.230Z,75.51
2017-04-20T06:52:48.097Z,75.51
2017-04-20T06:53:29.003Z,75.51
2017-04-20T06:54:09.886Z,74.95
2017-04-20T06:54:50.773Z,74.28
2017-04-20T06:55:31.648Z,74.47
2017-04-20T06:56:12.507Z,73.24
2017-04-20T06:56:53.387Z,72
2017-04-20T06:57:34.268Z,71.44
2017-04-20T06:58:15.149Z,69.92
2017-04-20T06:58:56.019Z,69.92
2017-04-20T06:59:36.879Z,70.3
2017-04-20T07:00:17.750Z,69.86
2017-04-20T07:01:00.551Z,69.38
2017-04-20T07:01:41.425Z,69.01
2017-04-20T07:02:22.298Z,68.73
2017-04-20T07:03:03.200Z,68.44
2017-04-20T07:05:16.899Z,67.11
2017-04-20T07:05:57.907Z,66.83
2017-04-20T07:06:38.675Z,65.63
2017-04-20T07:07:19.549Z,65.25
2017-04-20T07:08:00.424Z,64.78
2017-04-20T07:08:41.312Z,64.2
2017-04-20T07:09:22.185Z,63.07
2017-04-20T07:10:03.064Z,62.78
2017-04-20T07:10:46.604Z,62.59
2017-04-20T07:11:27.496Z,62.69
2017-04-20T07:12:10.121Z,62.4
2017-04-20T07:12:51.005Z,62.12
2017-04-20T07:13:33.609Z,62.5
2017-04-20T07:14:17.157Z,62.5
2017-04-20T07:14:57.979Z,61.93
2017-04-20T07:15:38.837Z,61.93
2017-04-20T07:16:21.634Z,61.46
2017-04-20T07:17:02.493Z,61.01
2017-04-20T07:20:19.365Z,58.64
2017-04-20T07:21:00.261Z,58.45
2017-04-20T07:25:49.972Z,55.18
2017-04-20T07:26:30.905Z,54.52
2017-04-20T07:27:11.766Z,53.85
2017-04-20T07:27:54.338Z,53.83
2017-04-20T07:28:35.235Z,54.58
2017-04-20T07:29:17.832Z,55.25
2017-04-20T07:30:00.690Z,55.18
2017-04-20T07:30:43.197Z,54.14
2017-04-20T07:31:24.093Z,53.76
2017-04-20T07:33:13.290Z,53.09
2017-04-20T07:33:54.196Z,52.62
2017-04-20T07:34:35.059Z,52.45
2017-04-20T07:35:15.930Z,51.95
2017-04-20T07:35:56.795Z,52.17
2017-04-20T07:36:37.665Z,51.98
2017-04-20T07:37:18.538Z,51.98
2017-04-20T07:37:59.567Z,51.34
2017-04-20T07:40:18.118Z,49.73
2017-04-20T07:40:59.007Z,49.73
2017-04-20T07:41:39.889Z,49.73
2017-04-20T07:42:20.776Z,49.63
2017-04-20T07:43:01.648Z,50.01
2017-04-20T07:43:42.534Z,49.25
2017-04-20T07:44:23.422Z,49.25
2017-04-20T07:45:04.318Z,49.06
2017-04-20T07:45:45.226Z,49.15
2017-04-20T07:46:26.069Z,49.73
2017-04-20T07:47:06.949Z,49.15
2017-04-20T07:47:47.835Z,49.25
2017-04-20T07:48:28.711Z,49.73
2017-04-20T07:49:09.604Z,49.63
2017-04-20T07:49:50.484Z,49.35
2017-04-20T07:50:31.375Z,49.06
2017-04-20T07:51:12.249Z,49.08
2017-04-20T07:51:53.120Z,48.51
2017-04-20T07:52:34.050Z,48.03
2017-04-20T07:53:14.926Z,48.71
2017-04-20T07:53:55.815Z,48.71
2017-04-20T07:54:36.713Z,48.03
2017-04-20T07:55:19.020Z,47.68
2017-04-20T07:55:59.890Z,47.58
2017-04-20T07:56:40.750Z,47.09
2017-04-20T07:57:21.634Z,47.39
2017-04-20T07:58:02.519Z,47.2
2017-04-20T07:58:43.420Z,47.2
2017-04-20T07:59:24.288Z,46.8
2017-04-20T08:00:05.175Z,46.54
2017-04-20T08:00:46.070Z,46.54
2017-04-20T08:01:26.949Z,45.56
2017-04-20T08:02:09.643Z,46.99
2017-04-20T08:02:52.137Z,47.11
2017-04-20T08:03:34.635Z,46.35
2017-04-20T08:04:15.520Z,45.51
2017-04-20T08:04:56.402Z,45.21
2017-04-20T08:05:37.289Z,45.11
2017-04-20T08:06:18.173Z,45.4
2017-04-20T08:06:59.054Z,45.97
2017-04-20T08:07:39.962Z,45.09
2017-04-20T08:08:20.848Z,45.49
2017-04-20T08:09:01.750Z,45.11
2017-04-20T08:09:42.639Z,45.01
2017-04-20T08:10:23.531Z,45.21
2017-04-20T08:11:04.409Z,45.11
2017-04-20T08:11:45.289Z,45.11
2017-04-20T08:12:29.154Z,45.04
2017-04-20T08:13:10.070Z,44.82
2017-04-20T08:13:50.967Z,45.3
2017-04-20T08:14:31.852Z,44.82
2017-04-20T08:15:12.761Z,45.49
2017-04-20T08:15:53.646Z,45.4
2017-04-20T08:16:34.534Z,45.4
2017-04-20T08:17:15.420Z,45.3
2017-04-20T08:17:56.329Z,45.4
2017-04-20T08:18:37.205Z,45.11
2017-04-20T08:19:18.106Z,44.82
2017-04-20T08:19:58.994Z,45.66
2017-04-20T08:21:54.315Z,45.78
2017-04-20T08:22:35.184Z,46.83
2017-04-20T08:23:16.081Z,46.18
2017-04-20T08:23:56.993Z,45.44
2017-04-20T08:24:37.868Z,44.75
2017-04-20T08:25:18.756Z,43.9
2017-04-20T08:25:59.672Z,44.27
2017-04-20T08:26:40.555Z,43.8
2017-04-20T08:27:21.444Z,44.46
2017-04-20T08:28:02.326Z,44.56
2017-04-20T08:28:43.274Z,44.92
2017-04-20T08:29:24.164Z,44.92
2017-04-20T08:30:05.042Z,45.21
2017-04-20T08:30:45.903Z,45.11
2017-04-20T08:31:26.783Z,45.49
2017-04-20T08:32:07.675Z,45.04
2017-04-20T08:32:48.553Z,44.27
2017-04-20T08:33:29.431Z,45.04
2017-04-20T08:34:10.308Z,44.01
2017-04-20T08:34:51.198Z,44.2
2017-04-20T08:35:32.091Z,44.27
2017-04-20T08:36:12.963Z,44.09
2017-04-20T08:36:53.855Z,43.82
2017-04-20T08:37:34.736Z,43.16
2017-04-20T08:38:15.629Z,42.96
2017-04-20T08:38:56.496Z,43.06
2017-04-20T08:39:37.375Z,42.49
2017-04-20T08:40:18.266Z,43.16
2017-04-20T08:40:59.241Z,43.06
2017-04-20T08:41:40.102Z,42.87
2017-04-20T08:45:45.576Z,43.37
2017-04-20T08:46:26.458Z,42.49
2017-04-20T08:47:07.411Z,42.49
2017-04-20T08:47:48.324Z,42.32
2017-04-20T08:48:29.205Z,42.51
2017-04-20T08:49:11.861Z,42.03
2017-04-20T08:49:52.772Z,41.56
2017-04-20T08:52:54.761Z,40.72
2017-04-20T08:53:35.677Z,40.7
2017-04-20T08:54:16.573Z,41.44
2017-04-20T08:55:49.820Z,41.27
2017-04-20T08:56:30.723Z,41.36
2017-04-20T08:57:11.618Z,41.17
2017-04-20T08:57:52.518Z,41.08
2017-04-20T08:58:33.407Z,41.36
2017-04-20T08:59:14.275Z,41.56
2017-04-20T08:59:55.164Z,41.56
2017-04-20T09:00:36.051Z,41.56
2017-04-20T09:01:16.936Z,41.44
2017-04-20T09:01:57.824Z,41.65
2017-04-20T09:02:38.709Z,41.56
2017-04-20T09:03:19.584Z,41.56
2017-04-20T09:04:00.482Z,41.36
2017-04-20T09:04:41.355Z,41.36
2017-04-20T09:05:22.247Z,41.67
2017-04-20T09:06:03.145Z,41
2017-04-20T09:06:44.028Z,40.41
2017-04-20T09:07:24.943Z,40.44
2017-04-20T09:08:05.837Z,40.12
2017-04-20T09:08:46.739Z,40.99
2017-04-20T09:09:27.610Z,40.77
2017-04-20T09:10:08.498Z,41.72
2017-04-20T09:10:49.384Z,41.52
2017-04-20T09:11:30.288Z,42.44
2017-04-20T09:12:11.176Z,43.78
2017-04-20T09:12:52.085Z,43.87
2017-04-20T09:13:32.967Z,43.9
2017-04-20T09:14:13.849Z,44.46
2017-04-20T09:14:54.736Z,44.16
2017-04-20T09:15:35.649Z,44.09
2017-04-20T09:16:16.505Z,44.45
2017-04-20T09:16:57.377Z,44.46
2017-04-20T09:17:38.265Z,44.11
2017-04-20T09:18:21.023Z,43.25
2017-04-20T09:19:01.908Z,42.32
2017-04-20T09:19:42.791Z,41.56
2017-04-20T09:20:23.684Z,41.1
2017-04-20T09:21:04.548Z,40.8
2017-04-20T09:21:45.425Z,41.56
2017-04-20T09:22:26.317Z,41.53
2017-04-20T09:23:07.210Z,41.44
2017-04-20T09:23:48.094Z,41.44
2017-04-20T09:24:28.972Z,41.53
2017-04-20T09:25:09.868Z,41.53
2017-04-20T09:25:50.750Z,41.06
2017-04-20T09:26:31.618Z,41.16
2017-04-20T09:27:59.733Z,41.16
2017-04-20T09:28:40.619Z,41.72
2017-04-20T09:29:21.499Z,42.47
2017-04-20T09:30:02.378Z,42.18
2017-04-20T09:32:16.113Z,42.7
2017-04-20T09:32:57.023Z,41.25
2017-04-20T09:38:34.606Z,38.81
2017-04-20T09:40:21.238Z,38.81
2017-04-20T09:41:02.115Z,38.62
2017-04-20T09:41:43.000Z,38.7
2017-04-20T09:42:23.888Z,39.1
2017-04-20T09:44:27.981Z,38.81
2017-04-20T09:45:08.878Z,38.45
2017-04-20T09:45:49.779Z,38.26
2017-04-20T09:46:30.654Z,38.03
2017-04-20T09:47:11.564Z,38.79
2017-04-20T09:47:52.455Z,38.71
2017-04-20T09:48:33.349Z,38.62
2017-04-20T09:49:14.248Z,39.19
2017-04-20T09:49:55.234Z,38.43
2017-04-20T09:50:36.137Z,37.78
2017-04-20T09:51:17.032Z,37.12
2017-04-20T09:51:57.927Z,37.3
2017-04-20T09:52:39.670Z,37.3
2017-04-20T09:53:20.563Z,37.88
2017-04-20T09:54:01.461Z,38.15
2017-04-20T09:54:42.400Z,38.53
2017-04-20T09:55:24.898Z,38.71
2017-04-20T09:56:05.784Z,38.51
2017-04-20T09:56:46.669Z,37.48
2017-04-20T09:58:41.354Z,37.46
2017-04-20T09:59:22.215Z,37.65
2017-04-20T10:00:03.107Z,38.03
2017-04-20T10:01:31.341Z,37.65
2017-04-20T10:02:12.290Z,37.95
2017-04-20T10:02:53.152Z,37.95